ELY290 LIPZ-LLBG
Flight info
| Callsign | ELY290 |
|---|---|
| Flight time | 3h 1m |
| Altitude | 19000 |
| Route | ROSKA7L/04R ROSKA T132 ROTAR P11 PUL/N0442F350 DCT LOS DCT MAVAR DCT TALAS UN130 MES UL609 PIPEN/N0438F370 UL609 ALKIS DCT APLON DCT PIKOG L609 ZUKKO |
| Aircraft | B738/M-SDE2E3FGHIRWXY/LB1 |
Departure
| Time | 2026-05-06 15:13 |
|---|---|
| Airport | Venice Marco Polo Airport (LIPZ) |
Arrival
| Time | 2026-05-06 18:14 |
|---|---|
| Airport | Ben Gurion International Airport (LLBG) |
| Time | Latitude | Longitude | Altitude | Speed | Heading |
|---|---|---|---|---|---|
| 2026-05-06 14:45 | 45.50613 | 12.34197 | 15 ft | 0 kts | 268° |
| 2026-05-06 15:03 | 45.50614 | 12.34220 | 15 ft | 4 kts | 265° |
| 2026-05-06 15:03 | 45.50617 | 12.34258 | 15 ft | 4 kts | 257° |
| 2026-05-06 15:03 | 45.50626 | 12.34294 | 15 ft | 4 kts | 237° |
| 2026-05-06 15:04 | 45.50641 | 12.34315 | 16 ft | 4 kts | 173° |
| 2026-05-06 15:04 | 45.50650 | 12.34312 | 15 ft | 1 kts | 154° |
| 2026-05-06 15:04 | 45.50651 | 12.34311 | 15 ft | 2 kts | 154° |
| 2026-05-06 15:08 | 45.50638 | 12.34320 | 17 ft | 7 kts | 155° |
| 2026-05-06 15:08 | 45.50588 | 12.34331 | 15 ft | 7 kts | 177° |
| 2026-05-06 15:08 | 45.50517 | 12.34338 | 15 ft | 14 kts | 176° |
| 2026-05-06 15:09 | 45.50426 | 12.34347 | 15 ft | 13 kts | 178° |
| 2026-05-06 15:09 | 45.50327 | 12.34354 | 15 ft | 16 kts | 176° |
| 2026-05-06 15:09 | 45.50233 | 12.34280 | 15 ft | 16 kts | 224° |
| 2026-05-06 15:09 | 45.50153 | 12.34177 | 16 ft | 15 kts | 223° |
| 2026-05-06 15:10 | 45.50077 | 12.34077 | 15 ft | 15 kts | 223° |
| 2026-05-06 15:10 | 45.50004 | 12.33980 | 14 ft | 14 kts | 222° |
| 2026-05-06 15:10 | 45.49897 | 12.33843 | 15 ft | 28 kts | 221° |
| 2026-05-06 15:10 | 45.49782 | 12.33695 | 15 ft | 15 kts | 220° |
| 2026-05-06 15:11 | 45.49697 | 12.33619 | 17 ft | 14 kts | 207° |
| 2026-05-06 15:11 | 45.49593 | 12.33520 | 15 ft | 21 kts | 194° |
| 2026-05-06 15:11 | 45.49517 | 12.33593 | 16 ft | 12 kts | 129° |
| 2026-05-06 15:11 | 45.49453 | 12.33694 | 15 ft | 18 kts | 131° |
| 2026-05-06 15:12 | 45.49445 | 12.33825 | 16 ft | 13 kts | 43° |
| 2026-05-06 15:12 | 45.49565 | 12.33972 | 14 ft | 48 kts | 43° |
| 2026-05-06 15:12 | 45.49994 | 12.34525 | 14 ft | 118 kts | 42° |
| 2026-05-06 15:12 | 45.50768 | 12.35515 | 42 ft | 173 kts | 44° |
| 2026-05-06 15:13 | 45.51725 | 12.36726 | 491 ft | 197 kts | 44° |
| 2026-05-06 15:13 | 45.52812 | 12.38141 | 802 ft | 220 kts | 47° |
| 2026-05-06 15:13 | 45.53768 | 12.39753 | 1723 ft | 204 kts | 68° |
| 2026-05-06 15:13 | 45.54037 | 12.41647 | 2610 ft | 194 kts | 91° |
| 2026-05-06 15:14 | 45.53853 | 12.43568 | 3272 ft | 198 kts | 107° |
| 2026-05-06 15:14 | 45.53515 | 12.45633 | 3492 ft | 227 kts | 105° |
| 2026-05-06 15:14 | 45.53167 | 12.47890 | 3906 ft | 238 kts | 104° |
| 2026-05-06 15:14 | 45.52833 | 12.50192 | 4532 ft | 236 kts | 104° |
| 2026-05-06 15:15 | 45.52492 | 12.52523 | 4970 ft | 241 kts | 104° |
| 2026-05-06 15:15 | 45.51982 | 12.54769 | 5494 ft | 237 kts | 125° |
| 2026-05-06 15:15 | 45.50905 | 12.56619 | 5689 ft | 250 kts | 137° |
| 2026-05-06 15:15 | 45.49666 | 12.58482 | 5895 ft | 267 kts | 136° |
| 2026-05-06 15:16 | 45.48366 | 12.60443 | 6265 ft | 274 kts | 136° |
| 2026-05-06 15:16 | 45.47051 | 12.62430 | 6843 ft | 278 kts | 137° |
| 2026-05-06 15:16 | 45.45736 | 12.64418 | 7518 ft | 280 kts | 138° |
| 2026-05-06 15:16 | 45.44394 | 12.66454 | 8199 ft | 283 kts | 138° |
| 2026-05-06 15:17 | 45.43040 | 12.68513 | 8912 ft | 286 kts | 138° |
| 2026-05-06 15:17 | 45.41679 | 12.70584 | 9624 ft | 288 kts | 139° |
| 2026-05-06 15:17 | 45.40293 | 12.72691 | 10219 ft | 295 kts | 139° |
| 2026-05-06 15:17 | 45.38836 | 12.74898 | 10381 ft | 317 kts | 138° |
| 2026-05-06 15:18 | 45.37288 | 12.77248 | 10644 ft | 333 kts | 138° |
| 2026-05-06 15:18 | 45.35691 | 12.79679 | 11198 ft | 338 kts | 138° |
| 2026-05-06 15:18 | 45.34075 | 12.82138 | 11911 ft | 340 kts | 138° |
| 2026-05-06 15:18 | 45.32455 | 12.84594 | 12592 ft | 343 kts | 138° |
| 2026-05-06 15:19 | 45.30904 | 12.87182 | 12838 ft | 349 kts | 128° |
| 2026-05-06 15:19 | 45.29706 | 12.90203 | 12885 ft | 352 kts | 121° |
| 2026-05-06 15:19 | 45.28608 | 12.93329 | 12884 ft | 354 kts | 121° |
| 2026-05-06 15:19 | 45.27484 | 12.96432 | 12884 ft | 353 kts | 122° |
| 2026-05-06 15:20 | 45.26322 | 12.99535 | 13108 ft | 358 kts | 123° |
| 2026-05-06 15:20 | 45.25143 | 13.02577 | 13833 ft | 358 kts | 124° |
| 2026-05-06 15:20 | 45.23904 | 13.05703 | 14579 ft | 359 kts | 124° |
| 2026-05-06 15:20 | 45.22685 | 13.08752 | 15182 ft | 363 kts | 124° |
| 2026-05-06 15:21 | 45.21429 | 13.11891 | 15786 ft | 368 kts | 124° |
| 2026-05-06 15:21 | 45.20161 | 13.15060 | 16405 ft | 372 kts | 124° |
| 2026-05-06 15:21 | 45.18877 | 13.18271 | 17013 ft | 376 kts | 124° |
| 2026-05-06 15:21 | 45.17578 | 13.21524 | 17600 ft | 381 kts | 124° |
| 2026-05-06 15:22 | 45.16259 | 13.24826 | 18194 ft | 385 kts | 124° |
| 2026-05-06 15:22 | 45.14932 | 13.28145 | 18729 ft | 388 kts | 124° |
| 2026-05-06 15:22 | 45.13594 | 13.31492 | 19310 ft | 390 kts | 124° |
| 2026-05-06 15:22 | 45.12258 | 13.34828 | 19890 ft | 393 kts | 124° |
| 2026-05-06 15:23 | 45.10901 | 13.38214 | 20423 ft | 395 kts | 124° |
| 2026-05-06 15:23 | 45.09537 | 13.41611 | 20956 ft | 398 kts | 124° |
| 2026-05-06 15:23 | 45.08160 | 13.45036 | 21486 ft | 401 kts | 124° |
| 2026-05-06 15:23 | 45.06791 | 13.48438 | 22010 ft | 404 kts | 125° |
| 2026-05-06 15:24 | 45.05392 | 13.51910 | 22525 ft | 407 kts | 125° |
| 2026-05-06 15:24 | 45.03980 | 13.55407 | 22937 ft | 411 kts | 125° |
| 2026-05-06 15:24 | 45.02551 | 13.58943 | 23368 ft | 416 kts | 125° |
| 2026-05-06 15:24 | 45.01108 | 13.62511 | 23834 ft | 418 kts | 125° |
| 2026-05-06 15:25 | 44.99655 | 13.66103 | 24227 ft | 421 kts | 125° |
| 2026-05-06 15:25 | 44.98198 | 13.69695 | 24605 ft | 424 kts | 125° |
| 2026-05-06 15:25 | 44.96745 | 13.73274 | 24967 ft | 427 kts | 125° |
| 2026-05-06 15:25 | 44.95265 | 13.76915 | 25329 ft | 430 kts | 125° |
| 2026-05-06 15:26 | 44.93770 | 13.80592 | 25695 ft | 433 kts | 126° |
| 2026-05-06 15:26 | 44.92263 | 13.84294 | 26024 ft | 437 kts | 126° |
| 2026-05-06 15:26 | 44.90731 | 13.88044 | 26279 ft | 442 kts | 126° |
| 2026-05-06 15:26 | 44.89136 | 13.91768 | 26613 ft | 442 kts | 130° |
| 2026-05-06 15:27 | 44.87213 | 13.95102 | 26986 ft | 437 kts | 139° |
| 2026-05-06 15:27 | 44.85143 | 13.98242 | 27363 ft | 438 kts | 140° |
| 2026-05-06 15:27 | 44.83039 | 14.01381 | 27686 ft | 441 kts | 140° |
| 2026-05-06 15:27 | 44.80923 | 14.04541 | 27997 ft | 444 kts | 140° |
| 2026-05-06 15:28 | 44.78800 | 14.07733 | 28341 ft | 447 kts | 139° |
| 2026-05-06 15:28 | 44.76697 | 14.10917 | 28666 ft | 450 kts | 139° |
| 2026-05-06 15:28 | 44.74537 | 14.14201 | 28984 ft | 452 kts | 139° |
| 2026-05-06 15:28 | 44.72421 | 14.17423 | 29234 ft | 455 kts | 139° |
| 2026-05-06 15:29 | 44.70265 | 14.20705 | 29487 ft | 459 kts | 139° |
| 2026-05-06 15:29 | 44.68094 | 14.24006 | 29775 ft | 461 kts | 139° |
| 2026-05-06 15:29 | 44.65906 | 14.27329 | 30023 ft | 464 kts | 139° |
| 2026-05-06 15:29 | 44.64421 | 14.29583 | 30191 ft | 466 kts | 139° |
| 2026-05-06 15:30 | 44.62218 | 14.32921 | 30432 ft | 467 kts | 139° |
| 2026-05-06 15:30 | 44.60052 | 14.36201 | 30756 ft | 466 kts | 139° |
| 2026-05-06 15:30 | 44.57844 | 14.39542 | 31186 ft | 463 kts | 139° |
| 2026-05-06 15:30 | 44.55632 | 14.42882 | 31568 ft | 462 kts | 139° |
| 2026-05-06 15:31 | 44.53435 | 14.46217 | 31858 ft | 463 kts | 137° |
| 2026-05-06 15:31 | 44.51488 | 14.49806 | 32095 ft | 471 kts | 127° |
| 2026-05-06 15:31 | 44.49795 | 14.53721 | 32405 ft | 472 kts | 126° |
| 2026-05-06 15:32 | 44.46496 | 14.61652 | 33130 ft | 469 kts | 126° |
| 2026-05-06 15:32 | 44.44848 | 14.65610 | 33431 ft | 468 kts | 126° |
| 2026-05-06 15:32 | 44.43192 | 14.69550 | 33726 ft | 468 kts | 126° |
| 2026-05-06 15:32 | 44.41536 | 14.73456 | 33916 ft | 470 kts | 127° |
| 2026-05-06 15:33 | 44.39854 | 14.77395 | 34085 ft | 471 kts | 127° |
| 2026-05-06 15:33 | 44.38177 | 14.81306 | 34329 ft | 471 kts | 127° |
| 2026-05-06 15:33 | 44.36493 | 14.85226 | 34659 ft | 468 kts | 127° |
| 2026-05-06 15:33 | 44.34805 | 14.89149 | 34954 ft | 466 kts | 127° |
| 2026-05-06 15:34 | 44.31436 | 14.96951 | 34977 ft | 471 kts | 127° |
| 2026-05-06 15:34 | 44.28050 | 15.04780 | 34972 ft | 468 kts | 127° |
| 2026-05-06 15:35 | 44.24705 | 15.12503 | 34986 ft | 465 kts | 127° |
| 2026-05-06 15:35 | 44.21340 | 15.20238 | 34995 ft | 467 kts | 127° |
| 2026-05-06 15:36 | 44.17963 | 15.27979 | 34996 ft | 468 kts | 127° |
| 2026-05-06 15:36 | 44.14590 | 15.35694 | 34989 ft | 469 kts | 127° |
| 2026-05-06 15:37 | 44.11191 | 15.43450 | 34995 ft | 470 kts | 127° |
| 2026-05-06 15:37 | 44.07772 | 15.51232 | 34993 ft | 471 kts | 127° |
| 2026-05-06 15:38 | 44.04339 | 15.59022 | 34990 ft | 471 kts | 127° |
| 2026-05-06 15:38 | 44.00908 | 15.66790 | 34993 ft | 472 kts | 127° |
| 2026-05-06 15:39 | 43.97465 | 15.74562 | 34974 ft | 471 kts | 127° |
| 2026-05-06 15:39 | 43.94026 | 15.82303 | 34986 ft | 470 kts | 127° |
| 2026-05-06 15:40 | 43.90609 | 15.89976 | 34993 ft | 469 kts | 127° |
| 2026-05-06 15:40 | 43.87179 | 15.97658 | 35005 ft | 468 kts | 127° |
| 2026-05-06 15:41 | 43.83748 | 16.05320 | 35003 ft | 466 kts | 127° |
| 2026-05-06 15:41 | 43.80327 | 16.12939 | 34999 ft | 465 kts | 127° |
| 2026-05-06 15:42 | 43.76906 | 16.20538 | 35002 ft | 464 kts | 127° |
| 2026-05-06 15:42 | 43.73485 | 16.28118 | 35017 ft | 464 kts | 127° |
| 2026-05-06 15:43 | 43.70060 | 16.35686 | 35005 ft | 463 kts | 127° |
| 2026-05-06 15:43 | 43.66638 | 16.43229 | 35018 ft | 463 kts | 127° |
| 2026-05-06 15:44 | 43.63209 | 16.50768 | 35009 ft | 463 kts | 127° |
| 2026-05-06 15:44 | 43.59778 | 16.58292 | 35018 ft | 463 kts | 127° |
| 2026-05-06 15:45 | 43.56361 | 16.65766 | 35030 ft | 463 kts | 127° |
| 2026-05-06 15:45 | 43.52905 | 16.73306 | 35030 ft | 464 kts | 127° |
| 2026-05-06 15:46 | 43.49452 | 16.80820 | 35038 ft | 464 kts | 127° |
| 2026-05-06 15:46 | 43.45990 | 16.88332 | 35030 ft | 464 kts | 127° |
| 2026-05-06 15:47 | 43.42520 | 16.95845 | 35032 ft | 465 kts | 127° |
| 2026-05-06 15:47 | 43.39063 | 17.03309 | 35038 ft | 466 kts | 127° |
| 2026-05-06 15:48 | 43.35549 | 17.10878 | 35028 ft | 467 kts | 127° |
| 2026-05-06 15:48 | 43.32064 | 17.18365 | 35034 ft | 467 kts | 127° |
| 2026-05-06 15:49 | 43.28553 | 17.25890 | 35021 ft | 467 kts | 127° |
| 2026-05-06 15:49 | 43.25047 | 17.33384 | 35033 ft | 466 kts | 127° |
| 2026-05-06 15:50 | 43.21538 | 17.40865 | 35030 ft | 466 kts | 126° |
| 2026-05-06 15:50 | 43.18028 | 17.48330 | 35031 ft | 464 kts | 126° |
| 2026-05-06 15:51 | 43.14524 | 17.55764 | 35032 ft | 463 kts | 127° |
| 2026-05-06 15:51 | 43.11032 | 17.63152 | 35042 ft | 461 kts | 127° |
| 2026-05-06 15:52 | 43.07560 | 17.70480 | 35043 ft | 461 kts | 127° |
| 2026-05-06 15:52 | 43.04057 | 17.77853 | 35039 ft | 460 kts | 126° |
| 2026-05-06 15:53 | 43.00562 | 17.85193 | 35028 ft | 460 kts | 126° |
| 2026-05-06 15:53 | 42.97094 | 17.92460 | 35045 ft | 459 kts | 126° |
| 2026-05-06 15:54 | 42.93602 | 17.99756 | 35051 ft | 458 kts | 126° |
| 2026-05-06 15:54 | 42.90112 | 18.07033 | 35053 ft | 458 kts | 126° |
| 2026-05-06 15:55 | 42.86626 | 18.14282 | 35053 ft | 458 kts | 126° |
| 2026-05-06 15:55 | 42.83118 | 18.21558 | 35064 ft | 459 kts | 126° |
| 2026-05-06 15:56 | 42.79602 | 18.28836 | 35058 ft | 459 kts | 126° |
| 2026-05-06 15:56 | 42.76082 | 18.36102 | 35051 ft | 460 kts | 126° |
| 2026-05-06 15:57 | 42.72553 | 18.43370 | 35053 ft | 460 kts | 126° |
| 2026-05-06 15:57 | 42.69024 | 18.50619 | 35055 ft | 461 kts | 126° |
| 2026-05-06 15:58 | 42.65470 | 18.57901 | 35055 ft | 462 kts | 126° |
| 2026-05-06 15:58 | 42.61917 | 18.65164 | 35073 ft | 464 kts | 126° |
| 2026-05-06 15:59 | 42.58364 | 18.72410 | 35087 ft | 466 kts | 126° |
| 2026-05-06 15:59 | 42.54751 | 18.79761 | 35057 ft | 467 kts | 126° |
| 2026-05-06 16:00 | 42.51135 | 18.87099 | 35088 ft | 468 kts | 126° |
| 2026-05-06 16:00 | 42.47539 | 18.94379 | 35084 ft | 470 kts | 126° |
| 2026-05-06 16:01 | 42.43888 | 19.01753 | 35070 ft | 471 kts | 126° |
| 2026-05-06 16:01 | 42.40233 | 19.09117 | 35078 ft | 470 kts | 126° |
| 2026-05-06 16:02 | 42.36588 | 19.16443 | 35077 ft | 469 kts | 127° |
| 2026-05-06 16:02 | 42.32926 | 19.23786 | 35071 ft | 468 kts | 127° |
| 2026-05-06 16:03 | 42.29291 | 19.31056 | 35077 ft | 467 kts | 127° |
| 2026-05-06 16:03 | 42.25669 | 19.38282 | 35081 ft | 466 kts | 127° |
| 2026-05-06 16:04 | 42.22059 | 19.45467 | 35072 ft | 465 kts | 127° |
| 2026-05-06 16:04 | 42.18412 | 19.52708 | 35099 ft | 465 kts | 127° |
| 2026-05-06 16:05 | 42.14747 | 19.59968 | 35085 ft | 466 kts | 127° |
| 2026-05-06 16:05 | 42.11687 | 19.66016 | 35087 ft | 465 kts | 127° |
| 2026-05-06 16:06 | 42.08036 | 19.73215 | 35075 ft | 465 kts | 127° |
| 2026-05-06 16:06 | 42.04387 | 19.80396 | 35069 ft | 464 kts | 127° |
| 2026-05-06 16:07 | 42.00765 | 19.87505 | 35087 ft | 463 kts | 127° |
| 2026-05-06 16:07 | 41.97108 | 19.94665 | 35083 ft | 464 kts | 127° |
| 2026-05-06 16:08 | 41.93439 | 20.01833 | 35079 ft | 465 kts | 127° |
| 2026-05-06 16:08 | 41.89772 | 20.08980 | 35079 ft | 466 kts | 127° |
| 2026-05-06 16:09 | 41.86081 | 20.16156 | 35074 ft | 467 kts | 127° |
| 2026-05-06 16:09 | 41.82390 | 20.23317 | 35070 ft | 468 kts | 127° |
| 2026-05-06 16:10 | 41.78662 | 20.30533 | 35060 ft | 469 kts | 127° |
| 2026-05-06 16:10 | 41.74944 | 20.37711 | 35078 ft | 469 kts | 127° |
| 2026-05-06 16:11 | 41.71238 | 20.44852 | 35072 ft | 470 kts | 127° |
| 2026-05-06 16:11 | 41.67501 | 20.52037 | 35065 ft | 470 kts | 127° |
| 2026-05-06 16:12 | 41.64126 | 20.59556 | 35067 ft | 471 kts | 121° |
| 2026-05-06 16:12 | 41.60945 | 20.67289 | 35056 ft | 471 kts | 120° |
| 2026-05-06 16:13 | 41.57773 | 20.74962 | 35048 ft | 471 kts | 121° |
| 2026-05-06 16:13 | 41.54592 | 20.82552 | 35043 ft | 470 kts | 121° |
| 2026-05-06 16:14 | 41.51383 | 20.90148 | 35045 ft | 470 kts | 121° |
| 2026-05-06 16:14 | 41.48171 | 20.97727 | 35038 ft | 469 kts | 121° |
| 2026-05-06 16:15 | 41.44957 | 21.05295 | 35031 ft | 468 kts | 121° |
| 2026-05-06 16:15 | 41.41749 | 21.12832 | 35034 ft | 466 kts | 121° |
| 2026-05-06 16:16 | 41.38541 | 21.20349 | 35036 ft | 466 kts | 120° |
| 2026-05-06 16:16 | 41.35353 | 21.27803 | 35009 ft | 465 kts | 120° |
| 2026-05-06 16:17 | 41.32151 | 21.35270 | 35016 ft | 465 kts | 121° |
| 2026-05-06 16:17 | 41.28945 | 21.42728 | 35035 ft | 465 kts | 121° |
| 2026-05-06 16:18 | 41.25718 | 21.50217 | 35031 ft | 465 kts | 121° |
| 2026-05-06 16:18 | 41.22495 | 21.57679 | 35012 ft | 466 kts | 121° |
| 2026-05-06 16:19 | 41.19257 | 21.65154 | 35005 ft | 467 kts | 121° |
| 2026-05-06 16:19 | 41.16018 | 21.72617 | 35018 ft | 467 kts | 121° |
| 2026-05-06 16:20 | 41.12753 | 21.80121 | 35026 ft | 468 kts | 121° |
| 2026-05-06 16:20 | 41.09492 | 21.87598 | 35013 ft | 469 kts | 121° |
| 2026-05-06 16:21 | 41.06040 | 21.94926 | 35030 ft | 468 kts | 127° |
| 2026-05-06 16:21 | 41.02111 | 22.01742 | 35016 ft | 468 kts | 129° |
| 2026-05-06 16:22 | 40.98118 | 22.08548 | 35013 ft | 468 kts | 129° |
| 2026-05-06 16:22 | 40.94165 | 22.15397 | 35031 ft | 468 kts | 128° |
| 2026-05-06 16:23 | 40.90239 | 22.22250 | 35008 ft | 468 kts | 128° |
| 2026-05-06 16:23 | 40.86323 | 22.29074 | 35009 ft | 468 kts | 128° |
| 2026-05-06 16:24 | 40.82378 | 22.35926 | 35009 ft | 468 kts | 128° |
| 2026-05-06 16:24 | 40.78429 | 22.42771 | 35004 ft | 468 kts | 128° |
| 2026-05-06 16:25 | 40.74489 | 22.49590 | 34997 ft | 468 kts | 128° |
| 2026-05-06 16:25 | 40.70545 | 22.56415 | 35016 ft | 467 kts | 128° |
| 2026-05-06 16:26 | 40.66600 | 22.63232 | 35006 ft | 467 kts | 128° |
| 2026-05-06 16:26 | 40.62656 | 22.70032 | 35016 ft | 467 kts | 128° |
| 2026-05-06 16:27 | 40.58706 | 22.76826 | 35027 ft | 467 kts | 128° |
| 2026-05-06 16:27 | 40.54776 | 22.83572 | 35011 ft | 467 kts | 128° |
| 2026-05-06 16:28 | 40.50817 | 22.90354 | 35022 ft | 467 kts | 128° |
| 2026-05-06 16:28 | 40.46847 | 22.97141 | 35021 ft | 468 kts | 128° |
| 2026-05-06 16:29 | 40.42629 | 23.03649 | 35034 ft | 467 kts | 134° |
| 2026-05-06 16:29 | 40.38099 | 23.09798 | 35014 ft | 468 kts | 135° |
| 2026-05-06 16:30 | 40.34313 | 23.14895 | 35016 ft | 468 kts | 135° |
| 2026-05-06 16:30 | 40.29054 | 23.22065 | 35026 ft | 469 kts | 134° |
| 2026-05-06 16:31 | 40.24544 | 23.28259 | 35043 ft | 470 kts | 134° |
| 2026-05-06 16:31 | 40.20038 | 23.34443 | 35029 ft | 470 kts | 134° |
| 2026-05-06 16:32 | 40.15508 | 23.40646 | 35044 ft | 471 kts | 135° |
| 2026-05-06 16:32 | 40.10973 | 23.46840 | 35029 ft | 471 kts | 134° |
| 2026-05-06 16:33 | 40.06432 | 23.53027 | 35049 ft | 471 kts | 134° |
| 2026-05-06 16:34 | 39.99601 | 23.62313 | 35045 ft | 472 kts | 134° |
| 2026-05-06 16:34 | 39.95046 | 23.68489 | 35056 ft | 472 kts | 134° |
| 2026-05-06 16:35 | 39.90515 | 23.74620 | 35053 ft | 473 kts | 135° |
| 2026-05-06 16:35 | 39.85939 | 23.80798 | 35041 ft | 473 kts | 134° |
| 2026-05-06 16:36 | 39.81386 | 23.86934 | 35035 ft | 473 kts | 134° |
| 2026-05-06 16:36 | 39.76777 | 23.93132 | 35056 ft | 474 kts | 134° |
| 2026-05-06 16:37 | 39.72188 | 23.99291 | 35053 ft | 474 kts | 135° |
| 2026-05-06 16:37 | 39.67601 | 24.05434 | 35045 ft | 474 kts | 135° |
| 2026-05-06 16:38 | 39.63009 | 24.11571 | 35045 ft | 474 kts | 134° |
| 2026-05-06 16:38 | 39.58407 | 24.17710 | 35040 ft | 474 kts | 135° |
| 2026-05-06 16:39 | 39.53835 | 24.23797 | 35054 ft | 474 kts | 135° |
| 2026-05-06 16:39 | 39.49210 | 24.29941 | 35048 ft | 474 kts | 135° |
| 2026-05-06 16:40 | 39.44591 | 24.36067 | 35040 ft | 475 kts | 135° |
| 2026-05-06 16:40 | 39.39982 | 24.42166 | 35043 ft | 475 kts | 135° |
| 2026-05-06 16:41 | 39.35352 | 24.48282 | 35052 ft | 475 kts | 135° |
| 2026-05-06 16:41 | 39.31532 | 24.53346 | 35048 ft | 475 kts | 134° |
| 2026-05-06 16:42 | 39.26212 | 24.60495 | 35042 ft | 476 kts | 134° |
| 2026-05-06 16:42 | 39.22363 | 24.65662 | 35061 ft | 476 kts | 134° |
| 2026-05-06 16:43 | 39.17790 | 24.71778 | 35066 ft | 476 kts | 134° |
| 2026-05-06 16:43 | 39.13205 | 24.77895 | 35054 ft | 476 kts | 134° |
| 2026-05-06 16:44 | 39.08573 | 24.84033 | 35066 ft | 476 kts | 135° |
| 2026-05-06 16:44 | 39.03896 | 24.90095 | 35070 ft | 476 kts | 135° |
| 2026-05-06 16:45 | 38.99185 | 24.96172 | 35055 ft | 476 kts | 135° |
| 2026-05-06 16:45 | 38.94543 | 25.02165 | 35066 ft | 476 kts | 135° |
| 2026-05-06 16:46 | 38.89863 | 25.08205 | 35060 ft | 476 kts | 135° |
| 2026-05-06 16:46 | 38.85199 | 25.14214 | 35066 ft | 476 kts | 135° |
| 2026-05-06 16:47 | 38.80504 | 25.20251 | 35068 ft | 476 kts | 135° |
| 2026-05-06 16:47 | 38.75800 | 25.26287 | 35063 ft | 477 kts | 135° |
| 2026-05-06 16:48 | 38.71107 | 25.32297 | 35064 ft | 477 kts | 135° |
| 2026-05-06 16:48 | 38.66444 | 25.38257 | 35060 ft | 477 kts | 135° |
| 2026-05-06 16:49 | 38.61729 | 25.44271 | 35073 ft | 477 kts | 135° |
| 2026-05-06 16:49 | 38.57027 | 25.50257 | 35071 ft | 477 kts | 135° |
| 2026-05-06 16:50 | 38.52315 | 25.56245 | 35071 ft | 478 kts | 135° |
| 2026-05-06 16:50 | 38.47612 | 25.62209 | 35076 ft | 478 kts | 135° |
| 2026-05-06 16:51 | 38.42886 | 25.68192 | 35078 ft | 479 kts | 135° |
| 2026-05-06 16:51 | 38.38150 | 25.74177 | 35075 ft | 479 kts | 136° |
| 2026-05-06 16:52 | 38.33431 | 25.80155 | 35081 ft | 479 kts | 135° |
| 2026-05-06 16:52 | 38.28729 | 25.86129 | 35076 ft | 479 kts | 135° |
| 2026-05-06 16:53 | 38.23976 | 25.92060 | 35076 ft | 479 kts | 138° |
| 2026-05-06 16:53 | 38.18933 | 25.97650 | 35086 ft | 480 kts | 140° |
| 2026-05-06 16:54 | 38.13861 | 26.03148 | 35077 ft | 480 kts | 140° |
| 2026-05-06 16:54 | 38.08788 | 26.08731 | 35073 ft | 480 kts | 140° |
| 2026-05-06 16:55 | 38.03754 | 26.14279 | 35086 ft | 480 kts | 140° |
| 2026-05-06 16:55 | 37.98724 | 26.19808 | 35077 ft | 480 kts | 140° |
| 2026-05-06 16:56 | 37.93640 | 26.25387 | 35082 ft | 480 kts | 140° |
| 2026-05-06 16:56 | 37.88590 | 26.30921 | 35074 ft | 480 kts | 140° |
| 2026-05-06 16:57 | 37.83548 | 26.36439 | 35088 ft | 481 kts | 140° |
| 2026-05-06 16:57 | 37.78473 | 26.41999 | 35085 ft | 481 kts | 140° |
| 2026-05-06 16:58 | 37.73414 | 26.47534 | 35085 ft | 481 kts | 140° |
| 2026-05-06 16:58 | 37.68355 | 26.53056 | 35082 ft | 481 kts | 140° |
| 2026-05-06 16:59 | 37.63260 | 26.58586 | 35082 ft | 482 kts | 140° |
| 2026-05-06 16:59 | 37.58179 | 26.64082 | 35084 ft | 482 kts | 140° |
| 2026-05-06 17:00 | 37.53082 | 26.69591 | 35072 ft | 483 kts | 140° |
| 2026-05-06 17:00 | 37.48010 | 26.75065 | 35084 ft | 483 kts | 140° |
| 2026-05-06 17:01 | 37.42899 | 26.80573 | 35088 ft | 483 kts | 140° |
| 2026-05-06 17:01 | 37.37826 | 26.86142 | 35074 ft | 484 kts | 137° |
| 2026-05-06 17:02 | 37.32966 | 26.91945 | 35074 ft | 485 kts | 136° |
| 2026-05-06 17:02 | 37.28117 | 26.97832 | 35095 ft | 485 kts | 136° |
| 2026-05-06 17:03 | 37.23246 | 27.03686 | 35069 ft | 485 kts | 136° |
| 2026-05-06 17:03 | 37.18347 | 27.09521 | 35080 ft | 485 kts | 137° |
| 2026-05-06 17:04 | 37.13496 | 27.15279 | 35080 ft | 485 kts | 137° |
| 2026-05-06 17:04 | 37.08580 | 27.21102 | 35070 ft | 485 kts | 137° |
| 2026-05-06 17:05 | 37.03658 | 27.26925 | 35074 ft | 485 kts | 137° |
| 2026-05-06 17:05 | 36.98740 | 27.32732 | 35073 ft | 486 kts | 137° |
| 2026-05-06 17:06 | 36.93848 | 27.38499 | 35075 ft | 486 kts | 137° |
| 2026-05-06 17:06 | 36.88920 | 27.44297 | 35076 ft | 486 kts | 137° |
| 2026-05-06 17:07 | 36.83999 | 27.50076 | 35060 ft | 486 kts | 137° |
| 2026-05-06 17:07 | 36.79067 | 27.55857 | 35064 ft | 486 kts | 137° |
| 2026-05-06 17:08 | 36.74139 | 27.61622 | 35054 ft | 486 kts | 137° |
| 2026-05-06 17:08 | 36.69205 | 27.67385 | 35044 ft | 486 kts | 137° |
| 2026-05-06 17:09 | 36.64265 | 27.73143 | 35047 ft | 486 kts | 137° |
| 2026-05-06 17:09 | 36.59391 | 27.78814 | 35051 ft | 485 kts | 137° |
| 2026-05-06 17:10 | 36.54449 | 27.84554 | 35047 ft | 484 kts | 137° |
| 2026-05-06 17:10 | 36.49546 | 27.90239 | 35050 ft | 484 kts | 137° |
| 2026-05-06 17:11 | 36.44603 | 27.95959 | 35048 ft | 483 kts | 137° |
| 2026-05-06 17:11 | 36.39712 | 28.01612 | 35045 ft | 483 kts | 137° |
| 2026-05-06 17:12 | 36.34777 | 28.07323 | 35053 ft | 483 kts | 135° |
| 2026-05-06 17:12 | 36.30590 | 28.13815 | 35037 ft | 482 kts | 124° |
| 2026-05-06 17:13 | 36.26725 | 28.20680 | 35036 ft | 482 kts | 124° |
| 2026-05-06 17:13 | 36.22843 | 28.27463 | 35048 ft | 482 kts | 125° |
| 2026-05-06 17:14 | 36.18921 | 28.34213 | 35045 ft | 483 kts | 125° |
| 2026-05-06 17:14 | 36.15008 | 28.40926 | 35047 ft | 483 kts | 125° |
| 2026-05-06 17:15 | 36.11062 | 28.47679 | 35052 ft | 484 kts | 125° |
| 2026-05-06 17:15 | 36.07115 | 28.54388 | 35064 ft | 484 kts | 126° |
| 2026-05-06 17:16 | 36.03162 | 28.61099 | 35063 ft | 485 kts | 126° |
| 2026-05-06 17:16 | 35.99171 | 28.67868 | 35070 ft | 485 kts | 126° |
| 2026-05-06 17:17 | 35.95189 | 28.74609 | 35080 ft | 486 kts | 126° |
| 2026-05-06 17:17 | 35.91217 | 28.81332 | 35063 ft | 486 kts | 126° |
| 2026-05-06 17:18 | 35.87877 | 28.86988 | 35070 ft | 486 kts | 126° |
| 2026-05-06 17:18 | 35.83912 | 28.93693 | 35073 ft | 487 kts | 126° |
| 2026-05-06 17:19 | 35.79902 | 29.00460 | 35072 ft | 487 kts | 126° |
| 2026-05-06 17:19 | 35.75923 | 29.07161 | 35079 ft | 487 kts | 126° |
| 2026-05-06 17:20 | 35.71908 | 29.13908 | 35080 ft | 488 kts | 126° |
| 2026-05-06 17:20 | 35.67917 | 29.20602 | 35068 ft | 488 kts | 126° |
| 2026-05-06 17:21 | 35.63902 | 29.27325 | 35080 ft | 488 kts | 126° |
| 2026-05-06 17:21 | 35.59873 | 29.34057 | 35080 ft | 488 kts | 126° |
| 2026-05-06 17:22 | 35.55841 | 29.40780 | 35076 ft | 488 kts | 126° |
| 2026-05-06 17:22 | 35.51808 | 29.47494 | 35073 ft | 488 kts | 127° |
| 2026-05-06 17:23 | 35.47799 | 29.54154 | 35084 ft | 488 kts | 127° |
| 2026-05-06 17:23 | 35.43759 | 29.60853 | 35083 ft | 488 kts | 127° |
| 2026-05-06 17:24 | 35.39727 | 29.67526 | 35079 ft | 488 kts | 127° |
| 2026-05-06 17:24 | 35.35685 | 29.74204 | 35078 ft | 488 kts | 127° |
| 2026-05-06 17:25 | 35.31629 | 29.80890 | 35079 ft | 488 kts | 127° |
| 2026-05-06 17:25 | 35.27580 | 29.87555 | 35081 ft | 488 kts | 127° |
| 2026-05-06 17:26 | 35.23520 | 29.94225 | 35078 ft | 489 kts | 127° |
| 2026-05-06 17:26 | 35.19461 | 30.00878 | 35080 ft | 489 kts | 128° |
| 2026-05-06 17:27 | 35.15341 | 30.07480 | 35088 ft | 489 kts | 128° |
| 2026-05-06 17:27 | 35.11186 | 30.14058 | 35069 ft | 489 kts | 129° |
| 2026-05-06 17:28 | 35.07025 | 30.20647 | 35074 ft | 488 kts | 129° |
| 2026-05-06 17:28 | 35.02898 | 30.27187 | 35081 ft | 488 kts | 129° |
| 2026-05-06 17:29 | 34.98748 | 30.33759 | 35081 ft | 488 kts | 129° |
| 2026-05-06 17:29 | 34.94598 | 30.40318 | 35096 ft | 488 kts | 129° |
| 2026-05-06 17:30 | 34.90428 | 30.46894 | 35078 ft | 489 kts | 129° |
| 2026-05-06 17:30 | 34.86293 | 30.53404 | 35083 ft | 489 kts | 129° |
| 2026-05-06 17:31 | 34.82126 | 30.59952 | 35084 ft | 489 kts | 129° |
| 2026-05-06 17:31 | 34.77955 | 30.66493 | 35088 ft | 489 kts | 129° |
| 2026-05-06 17:32 | 34.73770 | 30.73045 | 35088 ft | 489 kts | 129° |
| 2026-05-06 17:32 | 34.69627 | 30.79520 | 35078 ft | 488 kts | 129° |
| 2026-05-06 17:33 | 34.65444 | 30.86044 | 35084 ft | 488 kts | 129° |
| 2026-05-06 17:33 | 34.61274 | 30.92536 | 35088 ft | 487 kts | 129° |
| 2026-05-06 17:34 | 34.57095 | 30.99031 | 35081 ft | 487 kts | 130° |
| 2026-05-06 17:34 | 34.52913 | 31.05518 | 35082 ft | 486 kts | 130° |
| 2026-05-06 17:35 | 34.48737 | 31.11984 | 35089 ft | 486 kts | 130° |
| 2026-05-06 17:35 | 34.44570 | 31.18425 | 35085 ft | 486 kts | 130° |
| 2026-05-06 17:36 | 34.38330 | 31.28047 | 35093 ft | 486 kts | 130° |
| 2026-05-06 17:36 | 34.34134 | 31.34504 | 35084 ft | 486 kts | 130° |
| 2026-05-06 17:37 | 34.29958 | 31.40918 | 35084 ft | 485 kts | 130° |
| 2026-05-06 17:37 | 34.25782 | 31.47321 | 35087 ft | 485 kts | 130° |
| 2026-05-06 17:38 | 34.21591 | 31.53734 | 35084 ft | 485 kts | 130° |
| 2026-05-06 17:38 | 34.17396 | 31.60143 | 35083 ft | 485 kts | 130° |
| 2026-05-06 17:39 | 34.13213 | 31.66521 | 35089 ft | 484 kts | 130° |
| 2026-05-06 17:39 | 34.09036 | 31.72881 | 35093 ft | 484 kts | 131° |
| 2026-05-06 17:40 | 34.04837 | 31.79261 | 35088 ft | 484 kts | 131° |
| 2026-05-06 17:40 | 34.00634 | 31.85637 | 35083 ft | 485 kts | 131° |
| 2026-05-06 17:41 | 33.96436 | 31.91994 | 35089 ft | 485 kts | 131° |
| 2026-05-06 17:41 | 33.92238 | 31.98341 | 35087 ft | 485 kts | 131° |
| 2026-05-06 17:42 | 33.88026 | 32.04699 | 35091 ft | 485 kts | 131° |
| 2026-05-06 17:42 | 33.83847 | 32.11023 | 35088 ft | 485 kts | 131° |
| 2026-05-06 17:43 | 33.79665 | 32.17402 | 35083 ft | 485 kts | 131° |
| 2026-05-06 17:43 | 33.75505 | 32.23745 | 35088 ft | 486 kts | 131° |
| 2026-05-06 17:44 | 33.71321 | 32.30106 | 35090 ft | 486 kts | 131° |
| 2026-05-06 17:44 | 33.67113 | 32.36488 | 35087 ft | 486 kts | 131° |
| 2026-05-06 17:45 | 33.62926 | 32.42827 | 34817 ft | 483 kts | 131° |
| 2026-05-06 17:45 | 33.60847 | 32.45970 | 34481 ft | 477 kts | 131° |
| 2026-05-06 17:45 | 33.58813 | 32.49045 | 34097 ft | 473 kts | 131° |
| 2026-05-06 17:46 | 33.56748 | 32.52162 | 33679 ft | 470 kts | 131° |
| 2026-05-06 17:46 | 33.54752 | 32.55173 | 33243 ft | 467 kts | 131° |
| 2026-05-06 17:46 | 33.52743 | 32.58199 | 32885 ft | 463 kts | 131° |
| 2026-05-06 17:46 | 33.50744 | 32.61209 | 32494 ft | 460 kts | 131° |
| 2026-05-06 17:47 | 33.48742 | 32.64221 | 32104 ft | 457 kts | 131° |
| 2026-05-06 17:47 | 33.46784 | 32.67164 | 31734 ft | 454 kts | 131° |
| 2026-05-06 17:47 | 33.44809 | 32.70129 | 31355 ft | 451 kts | 131° |
| 2026-05-06 17:47 | 33.42843 | 32.73079 | 30980 ft | 449 kts | 131° |
| 2026-05-06 17:48 | 33.40910 | 32.75978 | 30611 ft | 446 kts | 131° |
| 2026-05-06 17:48 | 33.38976 | 32.78875 | 30236 ft | 444 kts | 131° |
| 2026-05-06 17:48 | 33.37047 | 32.81763 | 29822 ft | 442 kts | 131° |
| 2026-05-06 17:48 | 33.35156 | 32.84591 | 29412 ft | 439 kts | 131° |
| 2026-05-06 17:49 | 33.33251 | 32.87438 | 29011 ft | 436 kts | 131° |
| 2026-05-06 17:49 | 33.31364 | 32.90257 | 28609 ft | 433 kts | 131° |
| 2026-05-06 17:49 | 33.29491 | 32.93053 | 28236 ft | 429 kts | 131° |
| 2026-05-06 17:49 | 33.27640 | 32.95814 | 27861 ft | 426 kts | 131° |
| 2026-05-06 17:50 | 33.25774 | 32.98593 | 27479 ft | 423 kts | 131° |
| 2026-05-06 17:50 | 33.23941 | 33.01323 | 27109 ft | 420 kts | 131° |
| 2026-05-06 17:50 | 33.22107 | 33.04051 | 26729 ft | 418 kts | 131° |
| 2026-05-06 17:50 | 33.20298 | 33.06742 | 26363 ft | 415 kts | 132° |
| 2026-05-06 17:51 | 33.18495 | 33.09419 | 26003 ft | 413 kts | 132° |
| 2026-05-06 17:51 | 33.16722 | 33.12052 | 25653 ft | 410 kts | 132° |
| 2026-05-06 17:51 | 33.14943 | 33.14691 | 25279 ft | 408 kts | 132° |
| 2026-05-06 17:51 | 33.13155 | 33.17343 | 24896 ft | 406 kts | 132° |
| 2026-05-06 17:52 | 33.11390 | 33.19957 | 24546 ft | 404 kts | 133° |
| 2026-05-06 17:52 | 33.09629 | 33.22564 | 24179 ft | 402 kts | 133° |
| 2026-05-06 17:52 | 33.07875 | 33.25159 | 23815 ft | 401 kts | 133° |
| 2026-05-06 17:52 | 33.06130 | 33.27738 | 23393 ft | 400 kts | 133° |
| 2026-05-06 17:53 | 33.04387 | 33.30312 | 22993 ft | 397 kts | 133° |
| 2026-05-06 17:53 | 33.02656 | 33.32869 | 22615 ft | 394 kts | 133° |
| 2026-05-06 17:53 | 33.00939 | 33.35401 | 22266 ft | 391 kts | 133° |
| 2026-05-06 17:53 | 32.99232 | 33.37919 | 21895 ft | 389 kts | 132° |
| 2026-05-06 17:54 | 32.97549 | 33.40399 | 21538 ft | 386 kts | 132° |
| 2026-05-06 17:54 | 32.95862 | 33.42882 | 21199 ft | 383 kts | 132° |
| 2026-05-06 17:54 | 32.94180 | 33.45358 | 20839 ft | 381 kts | 132° |
| 2026-05-06 17:54 | 32.92533 | 33.47778 | 20484 ft | 379 kts | 132° |
| 2026-05-06 17:55 | 32.90872 | 33.50218 | 20135 ft | 376 kts | 132° |
| 2026-05-06 17:55 | 32.89781 | 33.51822 | 19909 ft | 375 kts | 132° |
| 2026-05-06 17:55 | 32.87612 | 33.55005 | 19454 ft | 372 kts | 132° |
| 2026-05-06 17:55 | 32.85986 | 33.57391 | 19110 ft | 371 kts | 132° |
| 2026-05-06 17:56 | 32.84368 | 33.59761 | 18678 ft | 372 kts | 132° |
| 2026-05-06 17:56 | 32.82733 | 33.62153 | 18299 ft | 371 kts | 132° |
| 2026-05-06 17:56 | 32.81608 | 33.63701 | 18069 ft | 368 kts | 135° |
| 2026-05-06 17:56 | 32.79887 | 33.65877 | 17760 ft | 364 kts | 137° |
| 2026-05-06 17:57 | 32.78112 | 33.68038 | 17400 ft | 361 kts | 137° |
| 2026-05-06 17:57 | 32.76366 | 33.70151 | 17063 ft | 358 kts | 138° |
| 2026-05-06 17:57 | 32.74625 | 33.72266 | 16697 ft | 356 kts | 137° |
| 2026-05-06 17:57 | 32.72906 | 33.74367 | 16364 ft | 353 kts | 137° |
| 2026-05-06 17:58 | 32.71203 | 33.76456 | 16031 ft | 351 kts | 137° |
| 2026-05-06 17:58 | 32.69513 | 33.78533 | 15694 ft | 349 kts | 137° |
| 2026-05-06 17:58 | 32.67834 | 33.80599 | 15360 ft | 347 kts | 137° |
| 2026-05-06 17:58 | 32.66160 | 33.82659 | 15022 ft | 345 kts | 137° |
| 2026-05-06 17:59 | 32.64501 | 33.84700 | 14688 ft | 343 kts | 137° |
| 2026-05-06 17:59 | 32.62852 | 33.86728 | 14358 ft | 342 kts | 137° |
| 2026-05-06 17:59 | 32.61200 | 33.88760 | 14029 ft | 340 kts | 136° |
| 2026-05-06 17:59 | 32.59565 | 33.90769 | 13682 ft | 338 kts | 136° |
| 2026-05-06 18:00 | 32.57928 | 33.92778 | 13316 ft | 336 kts | 136° |
| 2026-05-06 18:00 | 32.56306 | 33.94767 | 12978 ft | 334 kts | 136° |
| 2026-05-06 18:00 | 32.54709 | 33.96746 | 12725 ft | 329 kts | 136° |
| 2026-05-06 18:00 | 32.53149 | 33.98694 | 12502 ft | 323 kts | 136° |
| 2026-05-06 18:01 | 32.51618 | 34.00609 | 12268 ft | 318 kts | 136° |
| 2026-05-06 18:01 | 32.50101 | 34.02503 | 12048 ft | 315 kts | 136° |
| 2026-05-06 18:01 | 32.48592 | 34.04385 | 11829 ft | 314 kts | 136° |
| 2026-05-06 18:01 | 32.47110 | 34.06232 | 11612 ft | 312 kts | 136° |
| 2026-05-06 18:02 | 32.45619 | 34.08088 | 11394 ft | 311 kts | 135° |
| 2026-05-06 18:02 | 32.44132 | 34.09937 | 11172 ft | 309 kts | 135° |
| 2026-05-06 18:02 | 32.42654 | 34.11796 | 10949 ft | 309 kts | 132° |
| 2026-05-06 18:02 | 32.41363 | 34.13844 | 10708 ft | 310 kts | 125° |
| 2026-05-06 18:03 | 32.40169 | 34.15944 | 10437 ft | 309 kts | 125° |
| 2026-05-06 18:03 | 32.38963 | 34.18057 | 10138 ft | 307 kts | 125° |
| 2026-05-06 18:03 | 32.37792 | 34.20107 | 9858 ft | 305 kts | 125° |
| 2026-05-06 18:03 | 32.36608 | 34.22182 | 9563 ft | 302 kts | 125° |
| 2026-05-06 18:04 | 32.35435 | 34.24236 | 9269 ft | 299 kts | 124° |
| 2026-05-06 18:04 | 32.34278 | 34.26262 | 9016 ft | 296 kts | 124° |
| 2026-05-06 18:04 | 32.33125 | 34.28280 | 8747 ft | 293 kts | 124° |
| 2026-05-06 18:04 | 32.32011 | 34.30230 | 8498 ft | 290 kts | 124° |
| 2026-05-06 18:05 | 32.30879 | 34.32211 | 8238 ft | 286 kts | 124° |
| 2026-05-06 18:05 | 32.29786 | 34.34121 | 7996 ft | 283 kts | 124° |
| 2026-05-06 18:05 | 32.28688 | 34.36039 | 7745 ft | 280 kts | 124° |
| 2026-05-06 18:05 | 32.27598 | 34.37942 | 7501 ft | 277 kts | 124° |
| 2026-05-06 18:06 | 32.26521 | 34.39822 | 7260 ft | 274 kts | 123° |
| 2026-05-06 18:06 | 32.25460 | 34.41674 | 7022 ft | 272 kts | 123° |
| 2026-05-06 18:06 | 32.24401 | 34.43521 | 6781 ft | 270 kts | 123° |
| 2026-05-06 18:06 | 32.23349 | 34.45354 | 6525 ft | 268 kts | 123° |
| 2026-05-06 18:07 | 32.22270 | 34.47134 | 6290 ft | 267 kts | 126° |
| 2026-05-06 18:07 | 32.21163 | 34.48891 | 6043 ft | 266 kts | 125° |
| 2026-05-06 18:07 | 32.20119 | 34.50722 | 5821 ft | 272 kts | 123° |
| 2026-05-06 18:07 | 32.19100 | 34.52630 | 5576 ft | 274 kts | 122° |
| 2026-05-06 18:08 | 32.18100 | 34.54546 | 5313 ft | 274 kts | 121° |
| 2026-05-06 18:08 | 32.17116 | 34.56442 | 5074 ft | 274 kts | 121° |
| 2026-05-06 18:08 | 32.16118 | 34.58362 | 4812 ft | 274 kts | 121° |
| 2026-05-06 18:08 | 32.15129 | 34.60266 | 4510 ft | 269 kts | 121° |
| 2026-05-06 18:09 | 32.14161 | 34.62127 | 4230 ft | 263 kts | 121° |
| 2026-05-06 18:09 | 32.13217 | 34.63942 | 3962 ft | 254 kts | 121° |
| 2026-05-06 18:09 | 32.12307 | 34.65692 | 3698 ft | 247 kts | 121° |
| 2026-05-06 18:09 | 32.11424 | 34.67392 | 3449 ft | 239 kts | 120° |
| 2026-05-06 18:10 | 32.10577 | 34.69022 | 3242 ft | 226 kts | 120° |
| 2026-05-06 18:10 | 32.09780 | 34.70555 | 3027 ft | 213 kts | 120° |
| 2026-05-06 18:10 | 32.09031 | 34.71999 | 2800 ft | 201 kts | 120° |
| 2026-05-06 18:10 | 32.08335 | 34.73340 | 2698 ft | 181 kts | 120° |
| 2026-05-06 18:11 | 32.07709 | 34.74547 | 2476 ft | 172 kts | 120° |
| 2026-05-06 18:11 | 32.07081 | 34.75758 | 2260 ft | 170 kts | 120° |
| 2026-05-06 18:11 | 32.06473 | 34.76931 | 2027 ft | 167 kts | 120° |
| 2026-05-06 18:11 | 32.05898 | 34.78040 | 1810 ft | 159 kts | 119° |
| 2026-05-06 18:12 | 32.05323 | 34.79147 | 1646 ft | 155 kts | 118° |
| 2026-05-06 18:12 | 32.04756 | 34.80244 | 1414 ft | 157 kts | 120° |
| 2026-05-06 18:12 | 32.04184 | 34.81345 | 1218 ft | 158 kts | 120° |
| 2026-05-06 18:12 | 32.03593 | 34.82459 | 960 ft | 163 kts | 120° |
| 2026-05-06 18:13 | 32.02996 | 34.83606 | 774 ft | 160 kts | 118° |
| 2026-05-06 18:13 | 32.02436 | 34.84732 | 580 ft | 161 kts | 120° |
| 2026-05-06 18:13 | 32.01832 | 34.85876 | 327 ft | 164 kts | 120° |
| 2026-05-06 18:13 | 32.01242 | 34.87019 | 133 ft | 159 kts | 120° |
| 2026-05-06 18:14 | 32.00732 | 34.88011 | 117 ft | 116 kts | 121° |
| 2026-05-06 18:14 | 32.00437 | 34.88538 | 117 ft | 25 kts | 139° |
| 2026-05-06 18:14 | 32.00362 | 34.88602 | 120 ft | 19 kts | 150° |
| 2026-05-06 18:14 | 32.00290 | 34.88651 | 119 ft | 8 kts | 149° |
| 2026-05-06 18:15 | 32.00239 | 34.88684 | 119 ft | 10 kts | 156° |
| 2026-05-06 18:15 | 32.00230 | 34.88688 | 118 ft | 1 kts | 156° |
| 2026-05-06 18:15 | 32.00222 | 34.88692 | 118 ft | 1 kts | 156° |
| 2026-05-06 18:15 | 32.00190 | 34.88701 | 118 ft | 8 kts | 171° |
| 2026-05-06 18:16 | 32.00132 | 34.88705 | 117 ft | 8 kts | 186° |
| 2026-05-06 18:16 | 32.00095 | 34.88658 | 118 ft | 8 kts | 259° |
| 2026-05-06 18:16 | 32.00119 | 34.88595 | 119 ft | 11 kts | 301° |
| 2026-05-06 18:16 | 32.00184 | 34.88475 | 117 ft | 20 kts | 302° |
| 2026-05-06 18:17 | 32.00241 | 34.88363 | 115 ft | 15 kts | 302° |
| 2026-05-06 18:17 | 32.00294 | 34.88264 | 119 ft | 14 kts | 302° |
| 2026-05-06 18:17 | 32.00344 | 34.88169 | 118 ft | 13 kts | 302° |
| 2026-05-06 18:17 | 32.00392 | 34.88077 | 117 ft | 13 kts | 300° |
| 2026-05-06 18:18 | 32.00437 | 34.87987 | 118 ft | 13 kts | 301° |
| 2026-05-06 18:18 | 32.00481 | 34.87901 | 119 ft | 12 kts | 301° |
| 2026-05-06 18:18 | 32.00524 | 34.87819 | 118 ft | 11 kts | 301° |
| 2026-05-06 18:18 | 32.00562 | 34.87743 | 119 ft | 10 kts | 296° |
| 2026-05-06 18:19 | 32.00556 | 34.87668 | 118 ft | 9 kts | 236° |
| 2026-05-06 18:19 | 32.00521 | 34.87608 | 117 ft | 9 kts | 236° |
| 2026-05-06 18:19 | 32.00515 | 34.87599 | 116 ft | 0 kts | 227° |
| 2026-05-06 18:19 | 32.00506 | 34.87590 | 117 ft | 1 kts | 216° |
| 2026-05-06 18:20 | 32.00492 | 34.87583 | 116 ft | 1 kts | 195° |
| 2026-05-06 18:20 | 32.00439 | 34.87572 | 117 ft | 13 kts | 207° |
| 2026-05-06 18:20 | 32.00429 | 34.87561 | 119 ft | 1 kts | 227° |
| 2026-05-06 18:20 | 32.00426 | 34.87556 | 115 ft | 1 kts | 227° |
| 2026-05-06 18:21 | 32.00425 | 34.87556 | 116 ft | 0 kts | 227° |
| 2026-05-06 18:24 | 32.00426 | 34.87556 | 116 ft | 0 kts | 227° |